EST,Max TemperatureF,Mean TemperatureF,Min TemperatureF,Max Dew PointF,MeanDew PointF,Min DewpointF,Max Humidity, Mean Humidity, Min Humidity, Max Sea Level PressureIn, Mean Sea Level PressureIn, Min Sea Level PressureIn, Max VisibilityMiles, Mean VisibilityMiles, Min VisibilityMiles, Max Wind SpeedMPH, Mean Wind SpeedMPH, Max Gust SpeedMPH,PrecipitationIn, CloudCover, Events, WindDirDegrees
2012-12-1,60,47,34,51,42,30,96,80,67,30.17,30.07,29.94,10,4,1,18,9,28,0.00,3,,147
2012-12-2,60,48,37,54,46,37,100,93,63,30.09,30.01,29.88,10,3,0,17,8,26,0.07,6,Fog-Rain,224
2012-12-3,66,52,37,61,54,37,100,94,73,30.07,29.97,29.83,10,3,0,18,7,29,0.00,7,Fog,152
2012-12-4,64,54,41,57,43,30,100,78,61,30.24,30.04,29.88,10,9,2,21,11,29,0.14,4,Rain,273
2012-12-5,39,34,28,29,23,21,75,64,50,30.42,30.36,30.26,10,10,10,9,6,18,0.00,1,,96
2012-12-6,42,36,30,37,29,23,82,74,65,30.27,30.10,29.94,10,10,10,13,9,21,0.00,2,,151
2012-12-7,46,44,41,45,41,37,100,92,79,29.97,29.93,29.87,10,5,1,7,3,,0.10,8,Rain,323
2012-12-8,42,38,33,41,36,28,100,90,75,30.15,29.95,29.83,10,6,2,8,3,,0.07,7,Rain,53
2012-12-9,43,38,33,41,35,27,100,93,75,30.14,29.89,29.68,10,5,1,16,9,22,0.18,8,Rain-Snow,105
2012-12-10,41,36,30,39,32,28,100,91,73,29.92,29.78,29.67,10,5,0,23,12,28,0.35,8,Fog-Rain-Snow,318
2012-12-11,34,31,28,29,25,20,100,79,59,30.16,30.01,29.89,10,8,2,17,7,23,0.03,7,Snow,186
2012-12-12,42,34,27,27,25,22,85,70,53,30.34,30.28,30.17,10,10,7,14,8,,0.00,1,,177
2012-12-13,46,39,32,28,25,24,75,61,44,30.32,30.25,30.13,10,10,10,17,9,25,0.00,0,,186
2012-12-14,48,38,28,32,29,25,88,70,52,30.24,30.18,30.11,10,10,4,6,5,,0.00,0,,151
2012-12-15,50,44,37,49,41,30,100,88,62,30.09,29.76,29.60,10,6,2,16,9,23,0.24,7,Rain,153
2012-12-16,51,46,41,49,44,36,100,91,79,29.71,29.62,29.58,10,8,2,16,11,22,0.05,8,Rain,235
2012-12-17,42,40,36,36,34,30,86,80,76,29.73,29.70,29.65,10,10,6,12,6,,0.00,8,,268
2012-12-18,37,35,33,37,32,28,100,86,70,29.80,29.72,29.65,10,6,2,12,5,,0.06,7,Rain,167
2012-12-19,42,40,37,39,36,34,100,91,76,30.08,29.94,29.72,10,6,3,13,2,16,0.02,7,Rain,55
2012-12-20,50,43,36,48,40,34,97,90,73,29.91,29.33,29.06,10,6,1,25,15,37,0.92,8,Rain,139
2012-12-21,39,36,33,37,34,32,96,92,87,30.09,29.65,29.16,10,7,2,26,19,51,0.19,8,Rain-Snow,324
2012-12-22,33,29,25,,,,,,,30.18,30.12,30.01,10,10,10,15,10,25,0.00,4,,262
2012-12-23,37,30,23,,,,,,,30.04,29.98,29.91,10,9,6,8,3,,0.00,5,,85
2012-12-24,33,28,24,,,,,,,30.07,29.94,29.83,10,10,9,12,5,,0.00,5,,69
2012-12-25,34,26,19,,,,,,,30.34,30.25,30.06,10,10,7,9,4,17,0.00,2,,59
2012-12-26,30,28,26,28,26,24,100,92,79,30.25,30.03,29.93,10,7,1,14,10,24,0.00,8,Snow,31
2012-12-27,34,29,24,30,25,21,100,84,64,30.19,30.13,30.03,10,10,10,7,4,16,0.00,8,,50
2012-12-28,32,30,28,32,29,26,100,96,82,30.15,30.07,29.93,10,5,0,9,4,,0.04,8,Fog-Snow,121
2012-12-29,33,30,28,31,28,26,100,91,79,30.16,29.96,29.85,10,4,0,15,3,24,0.12,8,Fog-Snow,14
2012-12-30,28,24,19,24,19,15,85,79,69,30.36,30.27,30.17,10,7,4,17,11,23,0.00,5,,207
2012-12-31,37,32,27,30,25,19,81,75,69,30.14,30.04,29.99,10,10,7,20,11,24,0.00,4,,249